Time;durP1;ratioP1;P1;durP2;ratioP2;P2;SDS_P1;SDS_P2;PMS_P1;PMS_P2;Temp;Humidity;BMP_temperature;BMP_pressure;BME280_temperature;BME280_humidity;BME280_pressure;Samples;Min_cycle;Max_cycle;Signal;HPM_P1;HPM_P2
2021/11/16 00:01:54;;;;;;;;;9.25;7.25;;;;;14.47;46.01;99553.59;4825528;28;110607;-86
2021/11/16 00:04:21;;;;;;;;;7.50;7.25;;;;;14.47;46.36;99557.16;4780288;29;108467;-89
2021/11/16 00:06:52;;;;;;;;;12.75;7.75;;;;;14.46;45.93;99562.81;4808191;28;102320;-89
2021/11/16 00:09:19;;;;;;;;;8.00;6.75;;;;;14.47;45.99;99567.22;4814095;28;102491;-89
2021/11/16 00:11:47;;;;;;;;;11.00;7.50;;;;;14.45;46.72;99572.03;4820810;28;104042;-89
2021/11/16 00:14:18;;;;;;;;;8.50;7.75;;;;;14.45;45.98;99572.03;4817260;29;104152;-89
2021/11/16 00:16:45;;;;;;;;;6.75;5.75;;;;;14.44;46.63;99562.19;4808553;28;102422;-89
2021/11/16 00:19:15;;;;;;;;;8.25;8.25;;;;;14.44;46.65;99556.75;4805146;29;102355;-89
2021/11/16 00:21:44;;;;;;;;;7.00;6.75;;;;;14.42;46.00;99565.09;4809225;28;102761;-89
2021/11/16 00:24:18;;;;;;;;;8.00;6.00;;;;;14.42;45.95;99562.38;4812740;28;104211;-89
2021/11/16 00:26:45;;;;;;;;;7.75;7.25;;;;;14.43;46.11;99557.78;4807024;29;104878;-89
2021/11/16 00:29:12;;;;;;;;;15.25;7.75;;;;;14.41;46.24;99557.97;4800151;28;102232;-88
2021/11/16 00:31:39;;;;;;;;;7.75;7.00;;;;;14.39;46.28;99553.78;4785421;28;103198;-89
2021/11/16 00:34:07;;;;;;;;;7.25;7.25;;;;;14.39;46.29;99557.34;4793956;29;103668;-89
2021/11/16 00:36:34;;;;;;;;;11.75;9.75;;;;;14.42;46.64;99570.53;4817273;28;102589;-89
2021/11/16 00:39:01;;;;;;;;;10.75;8.75;;;;;14.41;46.71;99565.31;4799718;28;102832;-89
2021/11/16 00:41:28;;;;;;;;;10.75;7.75;;;;;14.43;46.42;99563.22;4814258;28;102286;-89
2021/11/16 00:43:55;;;;;;;;;9.50;8.00;;;;;14.42;46.32;99567.81;4795729;29;104377;-84
2021/11/16 00:46:23;;;;;;;;;10.75;5.25;;;;;14.44;45.94;99578.50;4805966;28;102282;-89
2021/11/16 00:48:50;;;;;;;;;7.00;6.25;;;;;14.43;46.54;99576.81;4802894;29;104197;-89
2021/11/16 00:51:18;;;;;;;;;8.50;7.50;;;;;14.42;46.51;99581.44;4811008;28;102606;-89
2021/11/16 00:53:45;;;;;;;;;7.25;5.75;;;;;14.42;46.74;99583.31;4812352;28;104605;-89
2021/11/16 00:56:12;;;;;;;;;7.75;7.50;;;;;14.42;46.47;99572.41;4802818;29;102557;-89
2021/11/16 00:58:39;;;;;;;;;11.25;8.00;;;;;14.41;46.70;99570.75;4808365;28;104057;-89
2021/11/16 01:01:06;;;;;;;;;9.50;9.25;;;;;14.40;46.61;99567.19;4795528;28;104001;-89
2021/11/16 01:03:34;;;;;;;;;9.25;8.00;;;;;14.40;46.41;99574.53;4784535;29;104017;-89
2021/11/16 01:06:01;;;;;;;;;11.50;10.75;;;;;14.38;46.60;99568.44;4802993;28;102597;-87
2021/11/16 01:08:28;;;;;;;;;2.00;1.00;;;;;14.38;46.60;99569.28;4791752;29;102575;-89
2021/11/16 01:10:55;;;;;;;;;11.00;9.00;;;;;14.37;46.69;99573.03;4821423;29;104424;-89
2021/11/16 01:13:23;;;;;;;;;9.50;8.00;;;;;14.38;46.58;99568.44;4817702;28;108968;-89
2021/11/16 01:15:50;;;;;;;;;7.25;6.00;;;;;14.37;46.51;99572.19;4801549;29;104238;-89
2021/11/16 01:18:19;;;;;;;;;9.00;7.50;;;;;14.38;46.17;99568.44;4814286;28;102746;-89
2021/11/16 01:20:47;;;;;;;;;9.75;6.25;;;;;14.39;46.08;99564.66;4812053;29;102504;-89
2021/11/16 01:23:15;;;;;;;;;10.75;8.00;;;;;14.38;46.00;99563.81;4814214;28;104084;-89
2021/11/16 01:25:44;;;;;;;;;8.00;6.75;;;;;14.38;46.12;99565.72;4822342;28;103526;-89
2021/11/16 01:28:13;;;;;;;;;12.00;8.00;;;;;14.39;46.21;99572.84;4805056;29;106535;-89
2021/11/16 01:30:43;;;;;;;;;11.25;10.00;;;;;14.38;46.81;99569.28;4819314;28;102764;-89
2021/11/16 01:33:13;;;;;;;;;10.50;7.75;;;;;14.38;46.50;99571.16;4813016;28;104029;-89
2021/11/16 01:35:42;;;;;;;;;7.50;6.00;;;;;14.37;46.64;99567.59;4788928;29;102576;-89
2021/11/16 01:38:11;;;;;;;;;7.25;5.50;;;;;14.38;46.20;99574.72;4803572;28;103033;-89
2021/11/16 01:40:38;;;;;;;;;8.00;8.00;;;;;14.38;46.42;99560.25;4805307;29;102763;-89
2021/11/16 01:43:08;;;;;;;;;8.00;6.75;;;;;14.37;46.09;99566.75;4810412;29;105448;-89
2021/11/16 01:45:55;;;;;;;;;7.75;7.00;;;;;14.38;46.45;99563.00;4788124;28;104039;-89
2021/11/16 01:48:24;;;;;;;;;10.25;7.00;;;;;14.35;46.17;99558.78;4779135;28;102553;-89
2021/11/16 01:50:51;;;;;;;;;9.75;8.00;;;;;14.36;46.54;99549.59;4809776;28;102750;-89
2021/11/16 01:53:18;;;;;;;;;8.50;8.50;;;;;14.36;46.55;99559.66;4797671;29;104482;-89
2021/11/16 01:55:45;;;;;;;;;9.25;6.50;;;;;14.37;46.55;99550.41;4808445;28;102637;-89
2021/11/16 01:58:12;;;;;;;;;6.25;6.25;;;;;14.35;46.18;99553.31;4819518;29;102509;-89
2021/11/16 02:00:40;;;;;;;;;9.25;9.25;;;;;14.34;46.23;99548.06;4810696;28;104948;-89
2021/11/16 02:03:10;;;;;;;;;12.00;7.50;;;;;14.34;46.62;99558.97;4776838;29;104463;-89
2021/11/16 02:05:48;;;;;;;;;11.75;8.50;;;;;14.35;46.46;99552.47;4809579;28;102408;-88
2021/11/16 02:08:16;;;;;;;;;9.75;9.50;;;;;14.35;46.14;99553.31;4786106;29;103985;-89
2021/11/16 02:10:44;;;;;;;;;7.00;6.25;;;;;14.36;46.43;99559.66;4742030;29;103924;-89
2021/11/16 02:13:12;;;;;;;;;8.25;6.00;;;;;14.34;46.35;99561.69;4785060;28;104065;-88
2021/11/16 02:15:39;;;;;;;;;10.50;9.00;;;;;14.35;46.18;99552.47;4803338;28;102442;-88
2021/11/16 02:18:10;;;;;;;;;8.50;7.00;;;;;14.36;46.49;99567.81;4811897;28;102121;-88
2021/11/16 02:20:39;;;;;;;;;8.50;7.00;;;;;14.34;46.10;99557.09;4819333;29;103315;-89
2021/11/16 02:23:06;;;;;;;;;6.00;5.75;;;;;14.34;46.66;99554.38;4794122;28;104116;-89
2021/11/16 02:25:34;;;;;;;;;12.00;9.25;;;;;14.33;46.79;99549.94;4777246;29;102714;-88
2021/11/16 02:28:01;;;;;;;;;10.50;8.75;;;;;14.35;46.78;99552.47;4797890;28;102792;-88
2021/11/16 02:30:28;;;;;;;;;8.00;6.50;;;;;14.36;46.08;99551.47;4804688;28;102261;-88
2021/11/16 02:32:56;;;;;;;;;9.75;8.00;;;;;14.32;46.57;99547.47;4815481;28;107956;-88
2021/11/16 02:35:25;;;;;;;;;8.50;7.00;;;;;14.31;46.30;99546.63;4809225;28;102515;-89
2021/11/16 02:37:54;;;;;;;;;8.00;8.00;;;;;14.29;46.08;99541.38;4820445;28;102508;-88
2021/11/16 02:40:21;;;;;;;;;6.50;6.00;;;;;14.32;46.67;99545.53;4765012;29;105413;-89
2021/11/16 02:42:48;;;;;;;;;7.50;5.75;;;;;14.32;46.43;99540.09;4810033;28;104123;-89
2021/11/16 02:45:15;;;;;;;;;11.50;9.25;;;;;14.31;46.08;99546.63;4797208;28;102546;-89
2021/11/16 02:47:43;;;;;;;;;10.75;7.50;;;;;14.30;45.98;99543.06;4781829;28;102201;-88
2021/11/16 02:50:10;;;;;;;;;10.25;8.00;;;;;14.30;46.04;99537.59;4793573;28;108082;-89
2021/11/16 02:52:37;;;;;;;;;9.75;8.50;;;;;14.32;46.28;99536.56;4798753;29;104172;-89
2021/11/16 02:55:08;;;;;;;;;10.50;7.50;;;;;14.32;46.35;99533.84;4797674;29;102264;-88
2021/11/16 02:57:35;;;;;;;;;8.50;8.25;;;;;14.32;46.30;99537.38;4798485;29;105277;-88
2021/11/16 03:00:09;;;;;;;;;9.25;7.50;;;;;14.30;46.67;99537.59;4827981;28;102213;-87
2021/11/16 03:02:39;;;;;;;;;11.75;9.25;;;;;14.32;46.06;99536.56;4805232;28;111043;-88
2021/11/16 03:05:07;;;;;;;;;9.00;8.50;;;;;14.30;45.96;99529.44;4788152;29;102555;-89
2021/11/16 03:07:38;;;;;;;;;7.25;7.25;;;;;14.30;46.44;99534.03;4821763;28;102167;-89
2021/11/16 03:10:06;;;;;;;;;11.25;7.00;;;;;14.27;46.14;99521.66;4798027;29;102845;-88
2021/11/16 03:12:33;;;;;;;;;11.25;8.00;;;;;14.28;45.99;99523.34;4812487;28;104036;-88
2021/11/16 03:15:01;;;;;;;;;11.00;10.00;;;;;14.30;46.74;99523.16;4823913;28;103173;-88
2021/11/16 03:17:28;;;;;;;;;9.75;7.00;;;;;14.28;46.20;99520.63;4798010;29;102609;-88
2021/11/16 03:19:55;;;;;;;;;7.25;7.00;;;;;14.29;46.47;99516.88;4798924;28;103130;-88
2021/11/16 03:22:26;;;;;;;;;11.00;8.00;;;;;14.28;46.25;99509.75;4818344;29;104078;-88
2021/11/16 03:24:57;;;;;;;;;12.00;7.00;;;;;14.29;46.59;99506.00;4820017;28;102597;-88
2021/11/16 03:27:34;;;;;;;;;7.75;7.00;;;;;14.32;46.57;99509.38;4814198;28;102053;-88
2021/11/16 03:30:03;;;;;;;;;16.75;9.50;;;;;14.32;46.64;99512.09;4819713;28;102307;-88
2021/11/16 03:32:36;;;;;;;;;11.75;10.75;;;;;14.34;46.09;99510.00;4815245;28;110162;-88
2021/11/16 03:35:05;;;;;;;;;7.75;7.00;;;;;14.35;46.69;99512.50;4770546;29;104628;-82
2021/11/16 03:37:41;;;;;;;;;9.00;7.00;;;;;14.36;46.26;99503.34;4808929;29;104041;-89
2021/11/16 03:40:09;;;;;;;;;7.25;6.75;;;;;14.38;45.96;99509.41;4791601;29;102736;-88
2021/11/16 03:42:38;;;;;;;;;9.00;8.75;;;;;14.39;46.04;99505.66;4814076;28;103424;-88
2021/11/16 03:45:06;;;;;;;;;9.50;8.00;;;;;14.41;46.52;99500.03;4795201;28;102665;-88
2021/11/16 03:47:33;;;;;;;;;9.50;9.50;;;;;14.42;46.18;99496.22;4821865;29;102249;-88
2021/11/16 03:50:00;;;;;;;;;11.75;8.75;;;;;14.43;46.14;99489.75;4821515;28;102572;-88
2021/11/16 03:52:26;;;;;;;;;10.00;7.00;;;;;14.44;46.09;99503.16;4820801;28;104036;-88
2021/11/16 03:54:53;;;;;;;;;6.50;5.00;;;;;14.45;45.99;99498.56;4813659;29;102479;-88
2021/11/16 03:57:22;;;;;;;;;9.50;8.00;;;;;14.45;45.95;99501.28;4810574;28;102501;-89
2021/11/16 03:59:49;;;;;;;;;7.25;6.00;;;;;14.45;46.06;99506.72;4816344;28;102080;-88
2021/11/16 04:02:16;;;;;;;;;10.50;7.00;;;;;14.46;46.26;99505.66;4807740;28;104033;-88
2021/11/16 04:04:44;;;;;;;;;9.75;9.25;;;;;14.47;46.13;99499.19;4811680;28;102758;-88
2021/11/16 04:07:11;;;;;;;;;13.00;11.00;;;;;14.47;46.36;99502.75;4811723;28;102941;-88
2021/11/16 04:09:41;;;;;;;;;7.50;7.25;;;;;14.47;45.94;99502.75;4809853;28;102363;-89
2021/11/16 04:12:08;;;;;;;;;9.00;8.00;;;;;14.47;46.38;99491.88;4798855;29;105995;-88
2021/11/16 04:14:35;;;;;;;;;7.00;7.00;;;;;14.47;46.38;99491.03;4793954;29;103338;-88
2021/11/16 04:17:03;;;;;;;;;9.25;8.00;;;;;14.46;45.94;99495.63;4791352;29;102365;-89
2021/11/16 04:19:30;;;;;;;;;12.25;9.00;;;;;14.46;46.39;99495.63;4786240;29;102266;-88
2021/11/16 04:22:00;;;;;;;;;10.00;8.75;;;;;14.47;46.47;99499.19;4781910;29;104140;-88
2021/11/16 04:24:27;;;;;;;;;9.50;9.50;;;;;14.47;46.38;99491.03;4785692;29;103415;-88
2021/11/16 04:26:54;;;;;;;;;11.75;8.00;;;;;14.48;45.77;99492.69;4795834;29;104780;-88
2021/11/16 04:29:21;;;;;;;;;7.75;7.00;;;;;14.48;46.49;99487.25;4801542;29;102622;-88
2021/11/16 04:31:48;;;;;;;;;10.75;8.75;;;;;14.49;46.33;99488.94;4800135;29;104463;-88
2021/11/16 04:34:16;;;;;;;;;11.75;7.50;;;;;14.48;46.35;99487.25;4785264;29;102556;-88
2021/11/16 04:36:43;;;;;;;;;8.00;7.00;;;;;14.48;46.19;99488.09;4786757;29;102535;-88
2021/11/16 04:39:10;;;;;;;;;9.00;7.75;;;;;14.49;46.35;99494.38;4799698;29;102423;-88
2021/11/16 04:41:38;;;;;;;;;7.75;7.75;;;;;14.49;46.38;99495.22;4773779;29;104478;-88
2021/11/16 04:44:07;;;;;;;;;12.25;9.50;;;;;14.47;46.59;99489.13;4790864;29;103775;-88
2021/11/16 04:46:34;;;;;;;;;8.50;7.50;;;;;14.48;45.77;99498.16;4797502;29;102530;-83
2021/11/16 04:49:19;;;;;;;;;5.75;5.50;;;;;14.48;46.12;99504.44;4795978;29;102376;-89
2021/11/16 04:54:36;;;;;;;;;10.25;8.25;;;;;14.48;46.07;99498.16;4780853;29;102296;-89
2021/11/16 05:05:03;;;;;;;;;11.50;8.75;;;;;14.42;46.25;99494.34;4805844;29;102614;-89
2021/11/16 05:07:32;;;;;;;;;11.00;8.00;;;;;14.42;46.42;99494.34;4782042;29;102582;-88
2021/11/16 05:10:00;;;;;;;;;10.75;7.75;;;;;14.43;46.31;99500.63;4790609;29;102792;-88
2021/11/16 05:12:28;;;;;;;;;9.25;7.50;;;;;14.43;45.94;99495.19;4802095;28;104266;-88
2021/11/16 05:14:55;;;;;;;;;8.50;6.50;;;;;14.41;45.98;99497.31;4806021;29;104186;-88
2021/11/16 05:17:23;;;;;;;;;7.00;6.00;;;;;14.40;46.49;99490.16;4817995;29;102477;-89
2021/11/16 05:19:50;;;;;;;;;7.25;6.75;;;;;14.39;46.25;99494.78;4814502;29;102377;-88
2021/11/16 05:22:17;;;;;;;;;9.00;7.75;;;;;14.39;45.80;99500.22;4795555;29;104415;-89
2021/11/16 05:24:44;;;;;;;;;8.25;6.25;;;;;14.38;46.19;99503.97;4815158;29;105269;-89
2021/11/16 05:27:12;;;;;;;;;8.25;7.25;;;;;14.38;46.46;99498.53;4806209;28;102509;-88
2021/11/16 05:29:39;;;;;;;;;7.25;7.00;;;;;14.38;46.08;99501.25;4817866;28;102528;-87
2021/11/16 05:32:06;;;;;;;;;10.50;7.00;;;;;14.38;46.98;99503.97;4808545;28;103789;-85
2021/11/16 05:34:33;;;;;;;;;9.25;7.00;;;;;14.37;46.45;99509.59;4829743;29;102550;-87
2021/11/16 05:37:00;;;;;;;;;8.00;6.25;;;;;14.38;47.12;99511.28;4817767;29;104758;-88
2021/11/16 05:39:27;;;;;;;;;8.50;8.00;;;;;14.37;47.12;99506.88;4817717;29;104106;-88
2021/11/16 05:41:54;;;;;;;;;9.75;7.25;;;;;14.39;47.08;99513.81;4814212;29;104366;-87
2021/11/16 05:48:08;;;;;;;;;7.25;7.25;;;;;14.39;46.72;99515.69;4801713;29;102714;-87
2021/11/16 05:50:36;;;;;;;;;6.50;6.00;;;;;14.38;46.57;99516.72;4804979;29;103921;-85
2021/11/16 05:53:05;;;;;;;;;7.75;6.00;;;;;14.38;46.55;99514.00;4824242;29;104168;-87
2021/11/16 05:55:32;;;;;;;;;11.00;9.25;;;;;14.37;47.37;99520.47;4812886;28;102139;-88
2021/11/16 05:57:59;;;;;;;;;7.50;7.00;;;;;14.36;47.52;99527.00;4811249;29;103490;-88
2021/11/16 06:00:27;;;;;;;;;9.00;8.25;;;;;14.38;47.53;99522.16;4816352;29;104507;-87
2021/11/16 06:02:54;;;;;;;;;10.50;8.25;;;;;14.38;47.73;99520.28;4810724;29;104130;-88
2021/11/16 06:05:21;;;;;;;;;10.25;8.50;;;;;14.40;47.14;99528.25;4802400;29;102472;-87
2021/11/16 06:07:48;;;;;;;;;7.25;6.00;;;;;14.38;47.17;99535.78;4800627;29;102641;-88
2021/11/16 06:10:15;;;;;;;;;9.50;6.75;;;;;14.38;47.37;99535.78;4815225;29;111405;-87
2021/11/16 06:12:43;;;;;;;;;9.00;8.00;;;;;14.36;47.43;99533.28;4816896;29;106044;-88
2021/11/16 06:15:10;;;;;;;;;8.00;7.50;;;;;14.36;47.27;99543.31;4820883;29;102235;-87
2021/11/16 06:17:42;;;;;;;;;11.50;10.00;;;;;14.35;47.45;99547.03;4817787;28;102610;-87
2021/11/16 06:20:09;;;;;;;;;12.00;9.00;;;;;14.34;46.83;99540.75;4799580;29;102694;-87
2021/11/16 06:22:36;;;;;;;;;12.75;11.00;;;;;14.33;47.12;99544.50;4790043;29;104214;-86
2021/11/16 06:25:03;;;;;;;;;11.50;8.50;;;;;14.33;47.49;99533.63;4796106;29;102665;-88
2021/11/16 06:27:31;;;;;;;;;9.50;9.25;;;;;14.32;47.47;99546.38;4807864;29;102389;-88
2021/11/16 06:30:01;;;;;;;;;10.00;8.50;;;;;14.33;47.07;99549.94;4798226;29;102475;-88
2021/11/16 06:32:28;;;;;;;;;11.50;10.00;;;;;14.34;47.17;99556.25;4816590;28;103899;-88
2021/11/16 06:34:55;;;;;;;;;8.00;8.00;;;;;14.35;46.97;99552.47;4791673;29;102317;-88
2021/11/16 06:37:22;;;;;;;;;7.50;6.25;;;;;14.32;46.96;99557.28;4824143;29;102419;-87
2021/11/16 06:39:49;;;;;;;;;8.25;8.00;;;;;14.34;47.48;99550.78;4796652;29;102813;-87
2021/11/16 06:42:16;;;;;;;;;8.75;7.25;;;;;14.32;47.13;99554.56;4804381;29;104104;-87
2021/11/16 06:44:43;;;;;;;;;9.25;9.25;;;;;14.34;46.97;99548.06;4827022;29;103431;-88
2021/11/16 06:47:13;;;;;;;;;7.50;7.00;;;;;14.34;46.78;99556.25;4814477;29;103338;-87
2021/11/16 06:49:41;;;;;;;;;11.75;10.25;;;;;14.32;47.51;99561.06;4825042;28;103048;-88
2021/11/16 06:52:08;;;;;;;;;12.50;9.25;;;;;14.32;46.81;99560.00;4818492;29;104120;-85
2021/11/16 06:54:36;;;;;;;;;9.25;8.25;;;;;14.31;47.19;99568.38;4824148;28;102427;-88
2021/11/16 06:57:03;;;;;;;;;11.25;10.50;;;;;14.32;46.93;99570.88;4820442;28;102680;-88
2021/11/16 06:59:30;;;;;;;;;7.00;7.00;;;;;14.32;46.74;99570.03;4821664;29;102404;-87
2021/11/16 07:01:58;;;;;;;;;7.75;7.75;;;;;14.32;46.72;99566.50;4823676;29;103616;-87
2021/11/16 07:04:39;;;;;;;;;1.00;0.00;;;;;14.34;47.30;99564.41;4819269;28;102548;-88
2021/11/16 07:07:06;;;;;;;;;7.50;7.50;;;;;14.34;47.28;99562.53;4799856;29;102479;-88
2021/11/16 07:09:36;;;;;;;;;7.50;7.00;;;;;14.34;47.30;99562.53;4828532;29;102292;-88
2021/11/16 07:12:09;;;;;;;;;7.50;6.25;;;;;14.32;46.57;99567.31;4816720;28;110212;-88
2021/11/16 07:14:37;;;;;;;;;6.50;6.50;;;;;14.31;47.41;99560.22;4808607;28;104241;-88
2021/11/16 07:17:14;;;;;;;;;9.00;8.50;;;;;14.32;47.08;99562.72;4827178;29;102469;-88
2021/11/16 07:19:48;;;;;;;;;11.25;7.75;;;;;14.32;46.81;99560.00;4814346;28;102771;-88
2021/11/16 07:22:20;;;;;;;;;8.25;8.25;;;;;14.32;46.86;99566.50;4808681;28;104052;-87
2021/11/16 07:25:02;;;;;;;;;11.25;10.25;;;;;14.32;46.64;99558.34;4824998;29;103969;-88
2021/11/16 07:27:41;;;;;;;;;8.50;6.25;;;;;14.32;46.86;99555.63;4800565;29;103071;-88
2021/11/16 07:30:10;;;;;;;;;10.50;9.00;;;;;14.30;47.25;99562.09;4804508;29;102342;-87
2021/11/16 07:32:53;;;;;;;;;11.00;8.75;;;;;14.30;46.70;99556.66;4802827;29;104053;-85
2021/11/16 07:35:27;;;;;;;;;10.00;6.25;;;;;14.31;47.37;99557.50;4827521;29;102437;-88
2021/11/16 07:37:57;;;;;;;;;9.75;7.50;;;;;14.29;47.07;99554.97;4814280;29;103637;-88
2021/11/16 07:40:24;;;;;;;;;9.25;8.00;;;;;14.28;47.25;99556.00;4822363;29;103388;-88
2021/11/16 07:43:09;;;;;;;;;8.75;7.50;;;;;14.27;46.95;99557.03;4794567;29;104087;-88
2021/11/16 07:45:51;;;;;;;;;8.50;7.00;;;;;14.30;46.87;99553.09;4781602;29;102616;-88
2021/11/16 07:48:28;;;;;;;;;6.75;6.75;;;;;14.29;47.07;99549.53;4813714;29;103050;-87
2021/11/16 07:50:57;;;;;;;;;7.25;6.50;;;;;14.30;47.43;99556.66;4809248;29;102285;-88
2021/11/16 07:53:27;;;;;;;;;8.00;7.00;;;;;14.28;47.43;99547.00;4817420;29;104075;-88
2021/11/16 07:55:53;;;;;;;;;10.00;8.00;;;;;14.29;46.65;99554.97;4823385;28;106770;-87
2021/11/16 07:58:23;;;;;;;;;7.25;6.00;;;;;14.32;46.85;99544.72;4823508;28;102746;-87
2021/11/16 08:00:50;;;;;;;;;3.50;3.50;;;;;14.35;47.40;99553.31;4803492;29;102744;-87
2021/11/16 08:03:21;;;;;;;;;10.50;8.00;;;;;14.38;46.84;99552.09;4803970;29;104496;-88
2021/11/16 08:05:59;;;;;;;;;8.50;6.50;;;;;14.40;47.15;99545.44;4814264;28;102388;-88
2021/11/16 08:11:12;;;;;;;;;11.50;9.00;;;;;14.45;47.01;99556.56;4797185;29;104584;-88
2021/11/16 08:14:04;;;;;;;;;8.00;7.75;;;;;14.48;47.08;99549.84;4812768;29;108919;-88
2021/11/16 08:16:34;;;;;;;;;8.25;7.25;;;;;14.50;47.44;99556.75;4818988;29;102217;-87
2021/11/16 08:19:10;;;;;;;;;11.50;8.00;;;;;14.53;47.07;99556.38;4801419;29;103442;-88
2021/11/16 08:21:39;;;;;;;;;9.50;6.75;;;;;14.56;46.61;99544.22;4800673;29;102779;-87
2021/11/16 08:24:08;;;;;;;;;10.25;8.50;;;;;14.57;46.85;99543.19;4816469;29;107881;-87
2021/11/16 08:26:48;;;;;;;;;10.50;8.50;;;;;14.59;47.07;99543.84;4822536;29;102700;-88
2021/11/16 08:29:23;;;;;;;;;11.50;6.75;;;;;14.61;47.33;99539.84;4813599;29;102519;-87
2021/11/16 08:32:00;;;;;;;;;7.50;6.25;;;;;14.64;47.22;99535.88;4814919;29;102795;-88
2021/11/16 08:34:29;;;;;;;;;8.25;7.50;;;;;14.66;46.97;99534.66;4776608;29;104140;-87
2021/11/16 08:36:56;;;;;;;;;9.50;8.00;;;;;14.67;46.90;99525.44;4789892;29;102274;-88
2021/11/16 08:39:41;;;;;;;;;8.50;7.00;;;;;14.71;47.28;99539.47;4820082;29;102271;-88
2021/11/16 08:42:17;;;;;;;;;11.00;7.50;;;;;14.72;46.72;99533.81;4808559;29;102702;-84
2021/11/16 08:44:58;;;;;;;;;13.00;9.50;;;;;14.74;46.70;99533.63;4801425;29;103929;-87
2021/11/16 08:47:48;;;;;;;;;7.25;5.00;;;;;14.76;46.73;99536.13;4809168;29;102559;-88
2021/11/16 08:50:29;;;;;;;;;9.00;7.75;;;;;14.77;47.17;99530.47;4818052;29;102695;-87
2021/11/16 08:52:57;;;;;;;;;7.00;6.75;;;;;14.79;47.15;99533.84;4824680;29;102314;-88
2021/11/16 08:55:28;;;;;;;;;5.75;5.00;;;;;14.81;47.19;99529.03;4825450;29;103884;-87
2021/11/16 08:57:56;;;;;;;;;7.25;7.25;;;;;14.84;47.22;99533.22;4812799;29;102465;-88
2021/11/16 09:00:28;;;;;;;;;9.50;7.25;;;;;14.86;46.79;99534.69;4779648;29;102216;-87
2021/11/16 09:03:24;;;;;;;;;7.00;7.00;;;;;14.86;46.86;99540.13;4812104;29;102171;-87
2021/11/16 09:05:53;;;;;;;;;7.75;7.75;;;;;14.86;46.80;99540.13;4810044;29;108795;-88
2021/11/16 09:08:26;;;;;;;;;12.25;9.00;;;;;14.85;46.80;99530.31;4793187;29;102200;-88
2021/11/16 09:11:00;;;;;;;;;9.00;7.25;;;;;14.88;47.13;99531.75;4791942;29;102671;-87
2021/11/16 09:13:29;;;;;;;;;8.00;6.50;;;;;14.88;46.67;99529.88;4824633;29;102235;-87
2021/11/16 09:15:57;;;;;;;;;8.50;7.75;;;;;14.89;47.10;99528.00;4820621;29;104285;-88
2021/11/16 09:18:29;;;;;;;;;7.00;5.75;;;;;14.87;46.72;99525.47;4810522;28;102163;-87
2021/11/16 09:20:59;;;;;;;;;11.00;6.00;;;;;14.88;46.62;99524.44;4813418;29;102723;-88
2021/11/16 09:23:39;;;;;;;;;6.75;6.75;;;;;14.88;46.81;99527.16;4810556;29;102221;-88
2021/11/16 09:26:13;;;;;;;;;7.75;7.25;;;;;14.88;47.17;99531.75;4819442;29;108869;-88
2021/11/16 09:28:45;;;;;;;;;8.50;7.75;;;;;14.89;46.54;99526.13;4807367;29;102559;-87
2021/11/16 09:31:35;;;;;;;;;9.00;7.00;;;;;14.89;47.04;99528.84;4829601;28;102506;-88
2021/11/16 09:34:06;;;;;;;;;10.00;7.75;;;;;14.88;47.14;99524.44;4823573;29;102640;-87
2021/11/16 09:36:37;;;;;;;;;8.25;6.75;;;;;14.89;46.89;99528.84;4824676;29;104103;-88
2021/11/16 09:39:16;;;;;;;;;8.75;7.75;;;;;14.90;46.91;99519.63;4812754;29;102008;-88
2021/11/16 09:41:53;;;;;;;;;8.75;6.50;;;;;14.90;47.17;99514.19;4794138;29;102550;-86
2021/11/16 09:44:28;;;;;;;;;8.00;7.00;;;;;14.90;47.17;99516.91;4804563;29;102231;-88
2021/11/16 09:47:25;;;;;;;;;8.75;8.00;;;;;14.89;46.77;99506.22;4807431;29;104377;-87
2021/11/16 09:49:56;;;;;;;;;8.25;6.50;;;;;14.90;46.73;99503.31;4818537;29;102737;-87
2021/11/16 09:52:26;;;;;;;;;8.75;8.00;;;;;14.91;47.04;99493.22;4813051;29;102574;-87
2021/11/16 09:55:00;;;;;;;;;6.00;6.00;;;;;14.89;46.97;99488.00;4820021;28;102262;-88
2021/11/16 09:57:40;;;;;;;;;7.50;6.25;;;;;14.90;46.79;99492.41;4809287;29;104263;-88
2021/11/16 10:00:15;;;;;;;;;8.00;7.25;;;;;14.90;47.15;99495.13;4804352;29;102280;-87
2021/11/16 10:02:46;;;;;;;;;9.50;7.00;;;;;14.90;46.97;99492.41;4794732;29;102081;-88
2021/11/16 10:05:22;;;;;;;;;11.00;9.25;;;;;14.89;46.60;99482.56;4799678;29;102760;-87
2021/11/16 10:07:50;;;;;;;;;10.50;8.00;;;;;14.91;46.49;99485.88;4793265;29;104125;-87
2021/11/16 10:10:18;;;;;;;;;7.25;5.00;;;;;14.92;46.67;99476.69;4808122;29;102217;-87
2021/11/16 10:12:52;;;;;;;;;7.25;7.00;;;;;14.92;46.96;99479.41;4818634;28;102495;-87
2021/11/16 10:15:21;;;;;;;;;6.50;6.50;;;;;14.93;46.55;99472.91;4797223;29;102552;-87
2021/11/16 10:17:49;;;;;;;;;7.75;7.00;;;;;14.96;46.54;99480.66;4819461;29;104030;-87
2021/11/16 10:20:18;;;;;;;;;8.50;6.75;;;;;14.97;46.74;99482.34;4797746;29;102217;-87
2021/11/16 10:23:08;;;;;;;;;8.75;7.25;;;;;14.99;46.95;99473.97;4814332;29;102715;-88
2021/11/16 10:25:37;;;;;;;;;8.00;7.50;;;;;15.00;46.83;99476.47;4801889;29;102431;-88
2021/11/16 10:28:11;;;;;;;;;7.75;6.75;;;;;15.02;46.92;99466.22;4821477;29;104135;-88
2021/11/16 10:30:38;;;;;;;;;8.75;6.25;;;;;15.03;46.66;99467.91;4818237;29;102445;-88
2021/11/16 10:33:13;;;;;;;;;7.75;7.75;;;;;15.06;46.83;99470.19;4807847;29;104406;-87
2021/11/16 10:35:49;;;;;;;;;9.00;6.75;;;;;15.07;46.49;99471.88;4808487;29;102471;-88
2021/11/16 10:38:18;;;;;;;;;9.75;8.00;;;;;15.09;46.94;99466.22;4809471;29;104348;-87
2021/11/16 10:40:45;;;;;;;;;6.00;6.00;;;;;15.11;46.92;99469.56;4827736;29;102157;-88
2021/11/16 10:43:13;;;;;;;;;8.50;6.75;;;;;15.12;46.83;99463.09;4816633;29;102244;-87
2021/11/16 10:45:45;;;;;;;;;8.00;6.50;;;;;15.13;46.96;99464.75;4821118;29;102168;-84
2021/11/16 10:48:14;;;;;;;;;7.25;6.25;;;;;15.15;47.12;99462.66;4809484;29;104034;-88
2021/11/16 10:50:43;;;;;;;;;7.25;4.75;;;;;15.15;46.81;99455.34;4811455;29;102171;-87
2021/11/16 10:53:15;;;;;;;;;8.00;6.00;;;;;15.18;46.99;99452.19;4793331;29;102468;-87
2021/11/16 10:55:49;;;;;;;;;7.25;6.50;;;;;15.18;46.76;99445.88;4795361;29;102607;-88
2021/11/16 10:58:26;;;;;;;;;9.00;8.00;;;;;15.21;47.16;99444.66;4822170;29;103003;-87
2021/11/16 11:01:04;;;;;;;;;8.00;7.50;;;;;15.22;47.09;99435.44;4820740;29;102710;-88
2021/11/16 11:03:32;;;;;;;;;8.00;7.25;;;;;15.22;46.88;99436.25;4815113;28;102436;-87
2021/11/16 11:06:10;;;;;;;;;6.25;6.25;;;;;15.24;46.81;99433.31;4819060;29;102305;-88
2021/11/16 11:08:42;;;;;;;;;7.00;5.50;;;;;15.22;46.66;99433.50;4794150;29;109043;-88
2021/11/16 11:11:32;;;;;;;;;7.50;6.00;;;;;15.23;47.13;99421.56;4787221;29;105690;-88
2021/11/16 11:14:15;;;;;;;;;7.00;6.25;;;;;15.26;46.85;99414.88;4800962;28;102765;-87
2021/11/16 11:16:53;;;;;;;;;13.25;7.00;;;;;15.26;46.82;99414.88;4812809;28;105331;-87
2021/11/16 11:19:26;;;;;;;;;7.50;7.25;;;;;15.27;47.06;99411.94;4819098;29;103598;-88
2021/11/16 11:22:09;;;;;;;;;6.75;6.25;;;;;15.28;46.87;99418.22;4806890;29;102248;-87
2021/11/16 11:24:43;;;;;;;;;6.00;6.00;;;;;15.28;46.96;99416.34;4820615;29;104335;-88
2021/11/16 11:29:45;;;;;;;;;7.50;6.75;;;;;15.31;46.48;99406.91;4826216;28;103986;-88
2021/11/16 11:32:20;;;;;;;;;6.00;5.25;;;;;15.32;46.95;99405.84;4807241;28;102595;-88
2021/11/16 11:34:52;;;;;;;;;6.00;5.00;;;;;15.32;46.70;99397.66;4788294;29;102422;-88
2021/11/16 11:37:22;;;;;;;;;10.00;7.25;;;;;15.35;46.82;99400.00;4820949;28;104871;-88
2021/11/16 11:40:07;;;;;;;;;9.00;7.00;;;;;15.35;46.74;99400.84;4826118;28;104812;-88
2021/11/16 11:42:38;;;;;;;;;6.50;6.00;;;;;15.36;46.41;99394.31;4818599;29;102420;-88
2021/11/16 11:45:19;;;;;;;;;8.50;6.75;;;;;15.37;46.99;99384.25;4826701;28;104304;-88
2021/11/16 11:47:47;;;;;;;;;6.25;5.25;;;;;15.40;46.76;99389.28;4817246;29;103295;-87
2021/11/16 11:50:38;;;;;;;;;8.00;6.75;;;;;15.43;45.93;99388.84;4805155;29;104102;-88
2021/11/16 11:53:12;;;;;;;;;7.00;7.00;;;;;15.44;46.86;99385.09;4819320;29;102624;-88
2021/11/16 11:55:43;;;;;;;;;7.50;6.75;;;;;15.45;46.88;99381.28;4804368;29;102839;-88
2021/11/16 11:58:11;;;;;;;;;6.75;6.25;;;;;15.48;46.34;99383.59;4807976;29;102814;-88